DigitalGlobe Inc $27.49

up +0.71


15/4/2014 06:40 PM  |  NYSE : DGI  
Industries : Aerospace/defense / Aerospace/defense Products & Services

Insider Transactions

Latest insider trade data based on US Insider Regulatory Filings which are subject to input errors by filers. Insiderslab.com may adjust certain filings for common filing errors on a reasonable effort basis.
Date Name Title Volume Trade Price Holding Change
4/01/2014Scott Walter S.EVP & Chief Technical Officer-500$29.06-1.18%
4/01/2014Scott Walter S.EVP & Chief Technical Officer-183$29.06-0.18%
3/14/2014FRAZIER LEON ANTHONYSVP, General Manager Insigh-770$31.38-2.35%
3/13/2014HOUGH LAWRENCE ADirector-2,500$31.48-7.40%
3/12/2014JABLONSKY DANIEL LSVP, GC and Secretary-3,049$32.01-5.53%
3/06/2014Spruill Yancey L.EVP, CFO and Treasurer-813$32.12-1.02%
3/06/2014WRAY GROVER N.SVP, Chief HR Officer-198$32.12-0.37%
3/06/2014TARR JEFFREY RPresident and CEO-2,923$32.12-1.61%
3/06/2014SHAPERO AMY ESVP, Corporate Development-143$32.12-0.78%
3/06/2014Scott Walter S.EVP & Chief Technical Officer-1,119$32.12-2.58%
3/06/2014Hascall Timothy MSVP, Operations-455$32.12-1.05%
3/06/2014ESTES HOWELL MDirector3,000$31.9015.04%
3/06/2014Troup Nathan M.N/A-24$32.12-0.53%
3/04/2014Scott Walter S.EVP & Chief Technical Officer-50$32.70-0.05%
3/04/2014Scott Walter S.EVP & Chief Technical Officer-120$32.70-0.28%
3/03/2014TARR JEFFREY RPresident and CEO2,000$31.041.11%
3/03/2014Scott Walter S.EVP & Chief Technical Officer-620$30.84-1.41%
3/03/2014Scott Walter S.EVP & Chief Technical Officer-233$30.84-0.22%
3/02/2014Spruill Yancey L.EVP, CFO and Treasurer-397$31.08-0.49%
3/02/2014Scott Walter S.EVP & Chief Technical Officer-375$31.08-0.84%
2/24/2014Scott Walter S.EVP & Chief Technical Officer-120$42.00-0.27%
2/24/2014Scott Walter S.EVP & Chief Technical Officer-50$42.00-0.05%
2/23/2014Spruill Yancey L.EVP, CFO and Treasurer-353$41.12-0.44%
2/23/2014Scott Walter S.EVP & Chief Technical Officer-254$41.12-0.57%
2/20/2014Fox Susan MChief Accounting Officer-619$40.88-7.16%
2/14/2014Scott Walter S.EVP & Chief Technical Officer-50$40.10-0.05%
2/14/2014Scott Walter S.EVP & Chief Technical Officer-120$40.10-0.27%
2/03/2014Scott Walter S.EVP & Chief Technical Officer-1,100$38.13-3.17%
2/03/2014Scott Walter S.EVP & Chief Technical Officer-433$38.13-0.41%
1/25/2014STEINKE-FIKE MARCY A.SVP, Government Relations-676$39.08-3.07%
1/25/2014TARR JEFFREY RPresident and CEO-4,607$39.08-3.46%
1/25/2014TURNER DAVID B. JR.SVP, Sales-1,054$39.08-2.80%
1/25/2014WRAY GROVER N.SVP, Chief HR Officer-1,021$39.08-2.23%
1/25/2014Spruill Yancey L.EVP, CFO and Treasurer-1,257$39.08-1.78%
1/25/2014Hascall Timothy MSVP, Operations-1,259$39.08-4.05%
1/25/2014SHAPERO AMY ESVP, Corporate Development-411$39.08-3.09%
1/25/2014JABLONSKY DANIEL LSVP, GC and Secretary-1,054$39.08-2.27%
1/25/2014Scott Walter S.EVP & Chief Technical Officer-1,259$39.08-3.51%
1/10/2014Scott Walter S.EVP & Chief Technical Officer-120$42.00-0.33%
1/10/2014Scott Walter S.EVP & Chief Technical Officer-50$42.00-0.05%
12/19/2013WRAY GROVER N.SVP, Chief HR Officer-3,085$41.81-6.31%
12/16/2013Scott Walter S.EVP & Chief Technical Officer-960$42.00-2.51%
12/16/2013Scott Walter S.EVP & Chief Technical Officer-400$42.00-0.38%
12/13/2013FRAZIER LEON ANTHONYSVP, Marketing-1,255$41.80-5.01%
12/12/2013STEINKE-FIKE MARCY A.SVP, Government Relations-1,349$41.47-5.78%
12/02/2013Scott Walter S.EVP & Chief Technical Officer-833$39.79-0.78%
12/02/2013Scott Walter S.EVP & Chief Technical Officer-2,060$39.78-5.12%
11/22/2013Scott Walter S.EVP & Chief Technical Officer-350$38.25-0.33%
11/22/2013Scott Walter S.EVP & Chief Technical Officer-840$38.25-2.04%
11/05/2013Scott Walter S.EVP & Chief Technical Officer-350$36.40-0.32%
11/05/2013Scott Walter S.EVP & Chief Technical Officer-840$36.40-2.00%
11/04/2013Scott Walter S.EVP & Chief Technical Officer-350$34.55-0.32%
11/04/2013Scott Walter S.EVP & Chief Technical Officer-840$34.55-1.96%
11/01/2013Scott Walter S.EVP & Chief Technical Officer-740$32.45-1.70%
11/01/2013Scott Walter S.EVP & Chief Technical Officer-283$32.45-0.26%
10/31/2013Scott Walter S.EVP & Chief Technical Officer-50$32.70-0.05%
10/31/2013Scott Walter S.EVP & Chief Technical Officer-120$32.70-0.27%
10/12/2013Hascall Timothy MSVP, Operations-1,122$30.75-3.48%
10/01/2013Scott Walter S.EVP & Chief Technical Officer-238$31.61-0.22%
10/01/2013Scott Walter S.EVP & Chief Technical Officer-615$31.61-1.39%
9/10/2013Scott Walter S.EVP & Chief Technical Officer-50$32.79-0.05%
9/10/2013Scott Walter S.EVP & Chief Technical Officer-120$32.79-0.27%
9/03/2013Scott Walter S.EVP & Chief Technical Officer-624$30.67-1.39%
9/03/2013Scott Walter S.EVP & Chief Technical Officer-233$30.68-0.21%
8/22/2013Spruill Yancey L.EVP, CFO and Treasurer-11,000$31.42-13.50%
8/15/2013Faga Martin ClarkDirector-7,358$31.00-25.88%
8/01/2013Scott Walter S.EVP & Chief Technical Officer-283$32.83-0.26%
8/01/2013Scott Walter S.EVP & Chief Technical Officer-740$32.83-1.62%
7/25/2013SHAPERO AMY ESVP, Corporate Development-451$32.96-3.28%
7/15/2013Scott Walter S.EVP & Chief Technical Officer-150$32.70-0.14%
7/15/2013Scott Walter S.EVP & Chief Technical Officer-360$32.70-0.78%
7/01/2013Scott Walter S.EVP & Chief Technical Officer-620$30.91-1.33%
7/01/2013Scott Walter S.EVP & Chief Technical Officer-233$30.91-0.21%
6/04/2013Scott Walter S.EVP & Chief Technical Officer-100$30.85-0.09%
6/04/2013Scott Walter S.EVP & Chief Technical Officer-240$30.85-0.51%
6/03/2013Scott Walter S.EVP & Chief Technical Officer-500$30.29-1.05%
6/03/2013Scott Walter S.EVP & Chief Technical Officer-183$30.29-0.17%
6/01/2013TURNER DAVID B. JR.Senior Vice President, Sales-1,818$30.23-4.61%
5/22/2013SHAPERO AMY ESVP, Corporate Development-203$28.02-1.45%
5/01/2013Scott Walter S.EVP & Chief Technical Officer-183$29.00-0.17%
5/01/2013Scott Walter S.EVP & Chief Technical Officer-500$29.00-1.04%
4/04/2013TARR JEFFREY RPresident and CEO-4,918$27.63-3.56%
3/26/2013FRAZIER LEON ANTHONYSVP, Marketing-850$28.86-4.50%
3/26/2013Tully ChristopherSVP, U.S. Government Sales-993$28.86-6.99%
3/15/2013Tully ChristopherSVP, U.S. Government Sales-368$29.42-2.52%
3/13/2013Tully ChristopherSVP, U.S. Government Sales-797$29.11-5.18%
3/12/2013Tully ChristopherSVP, U.S. Government Sales-1,400$28.94-7.96%
3/12/2013Tully ChristopherSVP, U.S. Government Sales-800$28.97-4.95%
3/12/2013JABLONSKY DANIEL LSVP, GC and Secretary-3,049$29.00-6.15%
3/07/2013FEINBERG STEPHENSubstantial Shareholder-5,000,000$28.30-47.68%
3/06/2013Spruill Yancey L.EVP, CFO & Treasurer-791$29.42-0.96%
3/06/2013Hascall Timothy MSVP of Operations-534$29.42-1.63%
3/06/2013Scott Walter S.EVP & Chief Technical Officer-1,114$29.42-2.18%
3/06/2013SHAPERO AMY ESVP, Corporate Development-143$29.42-1.01%
3/06/2013WRAY GROVER N.SVP & Chief HR Officer-237$29.42-0.48%
3/04/2013Spruill Yancey L.EVP, CFO & Treasurer-463$26.91-0.56%
3/04/2013Scott Walter S.EVP & Chief Technical Officer-436$26.91-0.85%
2/27/2013MORGAN STANLEYSubstantial Shareholder-190,000$26.93-2.55%
2/25/2013Spruill Yancey L.EVP, CFO & Treasurer416$25.540.50%
12/21/2012ALBERT PAUL M JRDirector1,500$1.257.01%
Data provided by Insiderslab.com. To read detailed Insider Trading Research Report for (DGI), click here.
Trading Center